EGGD/BRS METAR and TAF weather

Enter ICAO airport designator
Station Type Date Time Source
EGGD METAR 2020/01/20 15:50 UTC NOAA

EGGD 201550Z AUTO 25005KT 9999 NCD 05/03 Q1046


Station Type Date Time Source
EGGD Decoded METAR 2020/01/20 15:50 UTC NOAA

Bristol / Lulsgate , United Kingdom (EGGD) 51-23N 002-43W
Jan 20, 2020 - 10:50 AM EST / 2020.01.20 1550 UTC
Wind: from the WSW (250 degrees) at 6 MPH (5 KT):0
Visibility: greater than 7 mile(s):0
Temperature: 41 F (5 C)
Dew Point: 37 F (3 C)
Relative Humidity: 86%
Pressure (altimeter): 30.89 in. Hg (1046 hPa)
ob: EGGD 201550Z AUTO 25005KT 9999 NCD 05/03 Q1046
cycle: 16

Station Type Date Time Source
EGGD TAF 2020/01/20 12:09 UTC NOAA

TAF EGGD 201101Z 2012/2112 25004KT CAVOK
TEMPO 2100/2111 8000 PROB30
TEMPO 2105/2110 4000 BR BKN001

Example: see airport list